sensor_id;sensor_type;location;lat;lon;timestamp;P1;durP1;ratioP1;P2;durP2;ratioP2
11039;SDS011;5573;49.592;8.662;2023-03-20T00:01:55;244.63;;;230.73;;
11039;SDS011;5573;49.592;8.662;2023-03-20T00:04:23;243.30;;;229.50;;
11039;SDS011;5573;49.592;8.662;2023-03-20T00:06:51;236.60;;;223.43;;
11039;SDS011;5573;49.592;8.662;2023-03-20T00:09:20;232.20;;;219.33;;
11039;SDS011;5573;49.592;8.662;2023-03-20T00:11:49;245.83;;;232.03;;
11039;SDS011;5573;49.592;8.662;2023-03-20T00:14:19;232.33;;;219.37;;
11039;SDS011;5573;49.592;8.662;2023-03-20T00:16:49;238.10;;;224.90;;
11039;SDS011;5573;49.592;8.662;2023-03-20T00:19:18;242.20;;;228.60;;
11039;SDS011;5573;49.592;8.662;2023-03-20T00:21:48;253.50;;;239.33;;
11039;SDS011;5573;49.592;8.662;2023-03-20T00:24:17;248.07;;;234.37;;
11039;SDS011;5573;49.592;8.662;2023-03-20T00:26:47;248.23;;;234.70;;
11039;SDS011;5573;49.592;8.662;2023-03-20T00:29:19;252.63;;;238.63;;
11039;SDS011;5573;49.592;8.662;2023-03-20T00:31:49;253.80;;;239.60;;
11039;SDS011;5573;49.592;8.662;2023-03-20T00:34:18;251.53;;;237.57;;
11039;SDS011;5573;49.592;8.662;2023-03-20T00:36:50;257.77;;;243.43;;
11039;SDS011;5573;49.592;8.662;2023-03-20T00:39:18;247.57;;;233.90;;
11039;SDS011;5573;49.592;8.662;2023-03-20T00:41:48;270.23;;;255.57;;
11039;SDS011;5573;49.592;8.662;2023-03-20T00:44:20;264.10;;;249.70;;
11039;SDS011;5573;49.592;8.662;2023-03-20T00:46:52;259.13;;;244.47;;
11039;SDS011;5573;49.592;8.662;2023-03-20T00:49:21;281.57;;;265.93;;
11039;SDS011;5573;49.592;8.662;2023-03-20T00:51:52;272.37;;;257.53;;
11039;SDS011;5573;49.592;8.662;2023-03-20T00:54:20;263.53;;;248.60;;
11039;SDS011;5573;49.592;8.662;2023-03-20T00:56:50;277.47;;;262.03;;
11039;SDS011;5573;49.592;8.662;2023-03-20T00:59:22;264.93;;;250.10;;
11039;SDS011;5573;49.592;8.662;2023-03-20T01:01:54;259.67;;;245.53;;
11039;SDS011;5573;49.592;8.662;2023-03-20T01:04:24;281.00;;;265.67;;
11039;SDS011;5573;49.592;8.662;2023-03-20T01:06:57;258.20;;;244.00;;
11039;SDS011;5573;49.592;8.662;2023-03-20T01:09:25;280.03;;;264.47;;
11039;SDS011;5573;49.592;8.662;2023-03-20T01:11:55;268.23;;;253.43;;
11039;SDS011;5573;49.592;8.662;2023-03-20T01:14:23;265.87;;;251.27;;
11039;SDS011;5573;49.592;8.662;2023-03-20T01:16:51;273.37;;;258.33;;
11039;SDS011;5573;49.592;8.662;2023-03-20T01:19:19;260.00;;;245.67;;
11039;SDS011;5573;49.592;8.662;2023-03-20T01:21:48;256.30;;;241.93;;
11039;SDS011;5573;49.592;8.662;2023-03-20T01:24:16;249.47;;;235.60;;
11039;SDS011;5573;49.592;8.662;2023-03-20T01:26:44;251.40;;;237.07;;
11039;SDS011;5573;49.592;8.662;2023-03-20T01:29:16;266.77;;;252.00;;
11039;SDS011;5573;49.592;8.662;2023-03-20T01:31:46;272.40;;;257.27;;
11039;SDS011;5573;49.592;8.662;2023-03-20T01:34:16;267.20;;;252.13;;
11039;SDS011;5573;49.592;8.662;2023-03-20T01:36:46;271.60;;;256.50;;
11039;SDS011;5573;49.592;8.662;2023-03-20T01:39:16;264.67;;;250.17;;
11039;SDS011;5573;49.592;8.662;2023-03-20T01:41:47;274.77;;;258.87;;
11039;SDS011;5573;49.592;8.662;2023-03-20T01:44:19;268.77;;;253.37;;
11039;SDS011;5573;49.592;8.662;2023-03-20T01:46:52;282.33;;;266.00;;
11039;SDS011;5573;49.592;8.662;2023-03-20T01:52:26;261.00;;;246.50;;
11039;SDS011;5573;49.592;8.662;2023-03-20T01:54:54;262.93;;;248.13;;
11039;SDS011;5573;49.592;8.662;2023-03-20T01:57:22;261.27;;;246.57;;
11039;SDS011;5573;49.592;8.662;2023-03-20T01:59:55;273.63;;;258.53;;
11039;SDS011;5573;49.592;8.662;2023-03-20T02:02:29;264.27;;;249.67;;
11039;SDS011;5573;49.592;8.662;2023-03-20T02:04:59;259.30;;;245.00;;
11039;SDS011;5573;49.592;8.662;2023-03-20T02:07:29;256.63;;;242.37;;
11039;SDS011;5573;49.592;8.662;2023-03-20T02:10:05;267.43;;;252.67;;
11039;SDS011;5573;49.592;8.662;2023-03-20T02:12:45;268.83;;;253.73;;
11039;SDS011;5573;49.592;8.662;2023-03-20T02:15:25;249.70;;;235.83;;
11039;SDS011;5573;49.592;8.662;2023-03-20T02:18:08;260.70;;;246.60;;
11039;SDS011;5573;49.592;8.662;2023-03-20T02:20:42;274.77;;;259.70;;
11039;SDS011;5573;49.592;8.662;2023-03-20T02:23:26;271.23;;;256.47;;
11039;SDS011;5573;49.592;8.662;2023-03-20T02:26:16;263.37;;;248.57;;
11039;SDS011;5573;49.592;8.662;2023-03-20T02:29:03;259.30;;;244.67;;
11039;SDS011;5573;49.592;8.662;2023-03-20T02:35:30;260.67;;;246.23;;
11039;SDS011;5573;49.592;8.662;2023-03-20T02:38:21;257.57;;;243.37;;
11039;SDS011;5573;49.592;8.662;2023-03-20T02:41:00;271.50;;;256.63;;
11039;SDS011;5573;49.592;8.662;2023-03-20T02:43:41;259.97;;;245.60;;
11039;SDS011;5573;49.592;8.662;2023-03-20T02:46:17;269.00;;;254.03;;
11039;SDS011;5573;49.592;8.662;2023-03-20T02:48:54;272.43;;;257.33;;
11039;SDS011;5573;49.592;8.662;2023-03-20T02:51:27;259.10;;;244.80;;
11039;SDS011;5573;49.592;8.662;2023-03-20T02:54:05;250.10;;;236.17;;
11039;SDS011;5573;49.592;8.662;2023-03-20T02:56:40;276.80;;;261.60;;
11039;SDS011;5573;49.592;8.662;2023-03-20T02:59:19;259.20;;;244.67;;
11039;SDS011;5573;49.592;8.662;2023-03-20T03:01:55;271.10;;;256.13;;
11039;SDS011;5573;49.592;8.662;2023-03-20T03:04:31;264.27;;;249.53;;
11039;SDS011;5573;49.592;8.662;2023-03-20T03:07:02;273.23;;;257.60;;
11039;SDS011;5573;49.592;8.662;2023-03-20T03:09:35;265.53;;;250.70;;
11039;SDS011;5573;49.592;8.662;2023-03-20T03:12:09;264.03;;;249.63;;
11039;SDS011;5573;49.592;8.662;2023-03-20T03:14:41;271.10;;;256.03;;
11039;SDS011;5573;49.592;8.662;2023-03-20T03:17:15;259.63;;;245.17;;
11039;SDS011;5573;49.592;8.662;2023-03-20T03:19:47;261.63;;;246.83;;
11039;SDS011;5573;49.592;8.662;2023-03-20T03:22:17;254.77;;;240.57;;
11039;SDS011;5573;49.592;8.662;2023-03-20T03:24:48;266.93;;;251.97;;
11039;SDS011;5573;49.592;8.662;2023-03-20T03:27:20;259.13;;;244.90;;
11039;SDS011;5573;49.592;8.662;2023-03-20T03:29:51;277.43;;;261.17;;
11039;SDS011;5573;49.592;8.662;2023-03-20T03:32:23;268.77;;;253.80;;
11039;SDS011;5573;49.592;8.662;2023-03-20T03:34:55;266.47;;;251.80;;
11039;SDS011;5573;49.592;8.662;2023-03-20T03:37:30;262.53;;;248.03;;
11039;SDS011;5573;49.592;8.662;2023-03-20T03:40:11;269.67;;;254.50;;
11039;SDS011;5573;49.592;8.662;2023-03-20T03:42:48;269.60;;;254.73;;
11039;SDS011;5573;49.592;8.662;2023-03-20T03:45:22;282.50;;;266.87;;
11039;SDS011;5573;49.592;8.662;2023-03-20T03:47:57;268.43;;;253.73;;
11039;SDS011;5573;49.592;8.662;2023-03-20T03:50:32;236.67;;;223.63;;
11039;SDS011;5573;49.592;8.662;2023-03-20T03:53:05;269.33;;;254.30;;
11039;SDS011;5573;49.592;8.662;2023-03-20T03:55:39;277.90;;;262.27;;
11039;SDS011;5573;49.592;8.662;2023-03-20T03:58:14;259.07;;;244.40;;
11039;SDS011;5573;49.592;8.662;2023-03-20T04:00:46;262.33;;;247.47;;
11039;SDS011;5573;49.592;8.662;2023-03-20T04:03:17;272.23;;;256.90;;
11039;SDS011;5573;49.592;8.662;2023-03-20T04:05:49;268.27;;;253.37;;
11039;SDS011;5573;49.592;8.662;2023-03-20T04:08:20;267.40;;;252.60;;
11039;SDS011;5573;49.592;8.662;2023-03-20T04:10:49;260.80;;;246.07;;
11039;SDS011;5573;49.592;8.662;2023-03-20T04:13:17;270.03;;;255.27;;
11039;SDS011;5573;49.592;8.662;2023-03-20T04:15:45;278.47;;;262.87;;
11039;SDS011;5573;49.592;8.662;2023-03-20T04:18:13;250.70;;;236.90;;
11039;SDS011;5573;49.592;8.662;2023-03-20T04:20:44;260.77;;;246.47;;
11039;SDS011;5573;49.592;8.662;2023-03-20T04:23:12;260.97;;;246.40;;
11039;SDS011;5573;49.592;8.662;2023-03-20T04:25:40;268.33;;;253.30;;
11039;SDS011;5573;49.592;8.662;2023-03-20T04:28:09;275.13;;;259.90;;
11039;SDS011;5573;49.592;8.662;2023-03-20T04:30:57;258.17;;;243.90;;
11039;SDS011;5573;49.592;8.662;2023-03-20T04:33:55;252.40;;;238.27;;
11039;SDS011;5573;49.592;8.662;2023-03-20T04:36:52;263.20;;;249.10;;
11039;SDS011;5573;49.592;8.662;2023-03-20T04:39:26;255.53;;;241.50;;
11039;SDS011;5573;49.592;8.662;2023-03-20T04:41:54;250.30;;;236.20;;
11039;SDS011;5573;49.592;8.662;2023-03-20T04:44:23;252.00;;;238.13;;
11039;SDS011;5573;49.592;8.662;2023-03-20T04:46:51;270.83;;;255.80;;
11039;SDS011;5573;49.592;8.662;2023-03-20T04:49:19;274.40;;;259.40;;
11039;SDS011;5573;49.592;8.662;2023-03-20T04:51:46;267.07;;;252.83;;
11039;SDS011;5573;49.592;8.662;2023-03-20T04:54:20;259.00;;;244.60;;
11039;SDS011;5573;49.592;8.662;2023-03-20T04:56:48;274.37;;;259.80;;
11039;SDS011;5573;49.592;8.662;2023-03-20T04:59:18;259.83;;;245.63;;
11039;SDS011;5573;49.592;8.662;2023-03-20T05:01:48;267.57;;;252.37;;
11039;SDS011;5573;49.592;8.662;2023-03-20T05:04:16;285.53;;;269.47;;
11039;SDS011;5573;49.592;8.662;2023-03-20T05:06:44;284.50;;;268.67;;
11039;SDS011;5573;49.592;8.662;2023-03-20T05:09:16;277.90;;;262.30;;
11039;SDS011;5573;49.592;8.662;2023-03-20T05:11:45;251.47;;;237.77;;
11039;SDS011;5573;49.592;8.662;2023-03-20T05:14:33;267.30;;;252.67;;
11039;SDS011;5573;49.592;8.662;2023-03-20T05:17:31;264.20;;;249.60;;
11039;SDS011;5573;49.592;8.662;2023-03-20T05:20:19;265.07;;;250.33;;
11039;SDS011;5573;49.592;8.662;2023-03-20T05:23:13;258.03;;;243.83;;
11039;SDS011;5573;49.592;8.662;2023-03-20T05:25:52;253.80;;;239.47;;
11039;SDS011;5573;49.592;8.662;2023-03-20T05:28:30;257.27;;;243.00;;
11039;SDS011;5573;49.592;8.662;2023-03-20T05:31:27;252.63;;;238.40;;
11039;SDS011;5573;49.592;8.662;2023-03-20T05:34:14;249.10;;;235.77;;
11039;SDS011;5573;49.592;8.662;2023-03-20T05:37:02;255.80;;;241.50;;
11039;SDS011;5573;49.592;8.662;2023-03-20T05:39:56;255.23;;;241.30;;
11039;SDS011;5573;49.592;8.662;2023-03-20T05:42:38;253.70;;;239.57;;
11039;SDS011;5573;49.592;8.662;2023-03-20T05:45:32;250.70;;;236.97;;
11039;SDS011;5573;49.592;8.662;2023-03-20T05:48:27;240.87;;;227.40;;
11039;SDS011;5573;49.592;8.662;2023-03-20T05:51:12;251.83;;;238.07;;
11039;SDS011;5573;49.592;8.662;2023-03-20T05:54:00;238.13;;;224.77;;
11039;SDS011;5573;49.592;8.662;2023-03-20T05:56:42;269.37;;;254.63;;
11039;SDS011;5573;49.592;8.662;2023-03-20T05:59:45;251.13;;;236.97;;
11039;SDS011;5573;49.592;8.662;2023-03-20T06:02:36;257.57;;;243.33;;
11039;SDS011;5573;49.592;8.662;2023-03-20T06:05:24;275.95;;;260.50;;
11039;SDS011;5573;49.592;8.662;2023-03-20T06:07:53;272.05;;;257.02;;
11039;SDS011;5573;49.592;8.662;2023-03-20T06:10:21;255.57;;;241.27;;
11039;SDS011;5573;49.592;8.662;2023-03-20T06:12:50;278.93;;;263.43;;
11039;SDS011;5573;49.592;8.662;2023-03-20T06:15:22;261.75;;;247.43;;
11039;SDS011;5573;49.592;8.662;2023-03-20T06:17:57;275.80;;;260.23;;
11039;SDS011;5573;49.592;8.662;2023-03-20T06:20:26;269.50;;;254.60;;
11039;SDS011;5573;49.592;8.662;2023-03-20T06:22:55;274.33;;;259.08;;
11039;SDS011;5573;49.592;8.662;2023-03-20T06:25:24;282.03;;;266.07;;
11039;SDS011;5573;49.592;8.662;2023-03-20T06:27:51;277.67;;;262.20;;
11039;SDS011;5573;49.592;8.662;2023-03-20T06:30:19;293.93;;;277.23;;
11039;SDS011;5573;49.592;8.662;2023-03-20T06:32:48;265.80;;;250.97;;
11039;SDS011;5573;49.592;8.662;2023-03-20T06:35:18;268.00;;;252.90;;
11039;SDS011;5573;49.592;8.662;2023-03-20T06:37:48;256.37;;;242.23;;
11039;SDS011;5573;49.592;8.662;2023-03-20T06:40:22;252.73;;;238.57;;
11039;SDS011;5573;49.592;8.662;2023-03-20T06:42:51;249.20;;;235.23;;
11039;SDS011;5573;49.592;8.662;2023-03-20T06:45:20;257.77;;;243.43;;
11039;SDS011;5573;49.592;8.662;2023-03-20T06:47:55;260.40;;;245.87;;
11039;SDS011;5573;49.592;8.662;2023-03-20T06:50:22;255.47;;;241.27;;
11039;SDS011;5573;49.592;8.662;2023-03-20T06:52:51;280.07;;;264.50;;
11039;SDS011;5573;49.592;8.662;2023-03-20T06:55:37;266.37;;;251.50;;
11039;SDS011;5573;49.592;8.662;2023-03-20T06:58:05;272.27;;;257.00;;
11039;SDS011;5573;49.592;8.662;2023-03-20T07:00:34;272.10;;;256.87;;
11039;SDS011;5573;49.592;8.662;2023-03-20T07:03:05;253.67;;;239.77;;
11039;SDS011;5573;49.592;8.662;2023-03-20T07:05:33;255.37;;;241.03;;
11039;SDS011;5573;49.592;8.662;2023-03-20T07:08:05;239.47;;;226.00;;
11039;SDS011;5573;49.592;8.662;2023-03-20T07:10:34;263.77;;;249.07;;
11039;SDS011;5573;49.592;8.662;2023-03-20T07:13:04;270.83;;;255.50;;
11039;SDS011;5573;49.592;8.662;2023-03-20T07:15:34;258.30;;;243.90;;
11039;SDS011;5573;49.592;8.662;2023-03-20T07:18:03;260.13;;;245.77;;
11039;SDS011;5573;49.592;8.662;2023-03-20T07:20:31;258.47;;;243.93;;
11039;SDS011;5573;49.592;8.662;2023-03-20T07:22:59;269.80;;;254.98;;
11039;SDS011;5573;49.592;8.662;2023-03-20T07:25:30;265.87;;;250.93;;
11039;SDS011;5573;49.592;8.662;2023-03-20T07:28:09;261.83;;;246.93;;
11039;SDS011;5573;49.592;8.662;2023-03-20T07:30:41;268.73;;;253.90;;
11039;SDS011;5573;49.592;8.662;2023-03-20T07:33:14;280.33;;;265.13;;
11039;SDS011;5573;49.592;8.662;2023-03-20T07:35:43;264.13;;;249.57;;
11039;SDS011;5573;49.592;8.662;2023-03-20T07:38:11;267.33;;;252.13;;
11039;SDS011;5573;49.592;8.662;2023-03-20T07:40:52;266.53;;;251.50;;
11039;SDS011;5573;49.592;8.662;2023-03-20T07:43:22;267.63;;;252.57;;
11039;SDS011;5573;49.592;8.662;2023-03-20T07:46:00;256.30;;;242.07;;
11039;SDS011;5573;49.592;8.662;2023-03-20T07:48:28;267.90;;;252.90;;
11039;SDS011;5573;49.592;8.662;2023-03-20T07:50:57;265.83;;;250.60;;
11039;SDS011;5573;49.592;8.662;2023-03-20T07:53:25;268.33;;;253.23;;
11039;SDS011;5573;49.592;8.662;2023-03-20T07:55:52;270.00;;;254.60;;
11039;SDS011;5573;49.592;8.662;2023-03-20T07:58:21;285.13;;;269.07;;
11039;SDS011;5573;49.592;8.662;2023-03-20T08:00:49;272.70;;;257.57;;
11039;SDS011;5573;49.592;8.662;2023-03-20T08:03:17;281.67;;;265.90;;
11039;SDS011;5573;49.592;8.662;2023-03-20T08:05:46;277.37;;;262.17;;
11039;SDS011;5573;49.592;8.662;2023-03-20T08:08:13;293.27;;;276.97;;
11039;SDS011;5573;49.592;8.662;2023-03-20T08:10:41;282.47;;;267.20;;
11039;SDS011;5573;49.592;8.662;2023-03-20T08:13:09;281.07;;;265.67;;
11039;SDS011;5573;49.592;8.662;2023-03-20T08:15:39;292.10;;;275.87;;
11039;SDS011;5573;49.592;8.662;2023-03-20T08:18:07;282.93;;;267.27;;
11039;SDS011;5573;49.592;8.662;2023-03-20T08:20:34;284.77;;;268.73;;
11039;SDS011;5573;49.592;8.662;2023-03-20T08:23:02;287.00;;;271.10;;
11039;SDS011;5573;49.592;8.662;2023-03-20T08:25:30;287.60;;;271.70;;
11039;SDS011;5573;49.592;8.662;2023-03-20T08:27:59;275.57;;;260.40;;
11039;SDS011;5573;49.592;8.662;2023-03-20T08:30:27;294.47;;;277.93;;
11039;SDS011;5573;49.592;8.662;2023-03-20T08:32:56;306.57;;;289.77;;
11039;SDS011;5573;49.592;8.662;2023-03-20T08:35:24;277.63;;;262.37;;
11039;SDS011;5573;49.592;8.662;2023-03-20T08:38:11;285.67;;;270.13;;
11039;SDS011;5573;49.592;8.662;2023-03-20T08:40:39;284.57;;;268.47;;
11039;SDS011;5573;49.592;8.662;2023-03-20T08:43:07;290.43;;;273.90;;
11039;SDS011;5573;49.592;8.662;2023-03-20T08:45:35;290.43;;;273.67;;
11039;SDS011;5573;49.592;8.662;2023-03-20T08:48:05;287.77;;;271.80;;
11039;SDS011;5573;49.592;8.662;2023-03-20T08:50:32;287.93;;;271.80;;
11039;SDS011;5573;49.592;8.662;2023-03-20T08:53:00;291.90;;;275.83;;
11039;SDS011;5573;49.592;8.662;2023-03-20T08:55:28;274.97;;;259.87;;
11039;SDS011;5573;49.592;8.662;2023-03-20T08:57:56;300.57;;;283.73;;
11039;SDS011;5573;49.592;8.662;2023-03-20T09:00:24;276.17;;;261.13;;
11039;SDS011;5573;49.592;8.662;2023-03-20T09:02:53;289.77;;;273.70;;
11039;SDS011;5573;49.592;8.662;2023-03-20T09:05:22;289.63;;;273.87;;
11039;SDS011;5573;49.592;8.662;2023-03-20T09:07:50;276.57;;;261.30;;
11039;SDS011;5573;49.592;8.662;2023-03-20T09:10:17;289.20;;;273.50;;
11039;SDS011;5573;49.592;8.662;2023-03-20T09:12:45;273.27;;;258.07;;
11039;SDS011;5573;49.592;8.662;2023-03-20T09:15:13;291.77;;;275.27;;
11039;SDS011;5573;49.592;8.662;2023-03-20T09:17:40;302.57;;;285.37;;
11039;SDS011;5573;49.592;8.662;2023-03-20T09:20:09;284.40;;;268.87;;
11039;SDS011;5573;49.592;8.662;2023-03-20T09:22:39;280.17;;;264.47;;
11039;SDS011;5573;49.592;8.662;2023-03-20T09:25:09;289.10;;;272.67;;
11039;SDS011;5573;49.592;8.662;2023-03-20T09:27:36;283.97;;;268.07;;
11039;SDS011;5573;49.592;8.662;2023-03-20T09:30:05;285.67;;;269.67;;
11039;SDS011;5573;49.592;8.662;2023-03-20T09:32:33;297.67;;;281.30;;
11039;SDS011;5573;49.592;8.662;2023-03-20T09:35:02;285.40;;;269.77;;
11039;SDS011;5573;49.592;8.662;2023-03-20T09:37:30;286.23;;;270.23;;
11039;SDS011;5573;49.592;8.662;2023-03-20T09:39:59;287.30;;;271.27;;
11039;SDS011;5573;49.592;8.662;2023-03-20T09:42:31;292.00;;;276.03;;
11039;SDS011;5573;49.592;8.662;2023-03-20T09:45:09;286.73;;;270.83;;
11039;SDS011;5573;49.592;8.662;2023-03-20T09:47:43;298.03;;;281.20;;
11039;SDS011;5573;49.592;8.662;2023-03-20T09:50:23;295.03;;;279.00;;
11039;SDS011;5573;49.592;8.662;2023-03-20T09:52:56;292.30;;;275.80;;
11039;SDS011;5573;49.592;8.662;2023-03-20T09:55:35;285.87;;;270.00;;
11039;SDS011;5573;49.592;8.662;2023-03-20T09:58:09;300.73;;;284.27;;
11039;SDS011;5573;49.592;8.662;2023-03-20T10:00:41;291.95;;;275.70;;
11039;SDS011;5573;49.592;8.662;2023-03-20T10:03:14;265.80;;;251.00;;
11039;SDS011;5573;49.592;8.662;2023-03-20T10:05:45;304.42;;;287.10;;
11039;SDS011;5573;49.592;8.662;2023-03-20T10:08:19;300.50;;;283.75;;
11039;SDS011;5573;49.592;8.662;2023-03-20T10:10:56;297.77;;;281.23;;
11039;SDS011;5573;49.592;8.662;2023-03-20T10:13:46;297.88;;;281.30;;
11039;SDS011;5573;49.592;8.662;2023-03-20T10:16:25;291.90;;;275.20;;
11039;SDS011;5573;49.592;8.662;2023-03-20T10:19:05;288.73;;;272.60;;
11039;SDS011;5573;49.592;8.662;2023-03-20T10:21:43;300.40;;;283.75;;
11039;SDS011;5573;49.592;8.662;2023-03-20T10:24:15;301.15;;;285.00;;
11039;SDS011;5573;49.592;8.662;2023-03-20T10:26:49;321.25;;;303.52;;
11039;SDS011;5573;49.592;8.662;2023-03-20T10:29:21;310.63;;;293.48;;
11039;SDS011;5573;49.592;8.662;2023-03-20T10:31:56;305.95;;;288.92;;
11039;SDS011;5573;49.592;8.662;2023-03-20T10:34:38;314.70;;;297.08;;
11039;SDS011;5573;49.592;8.662;2023-03-20T10:37:19;313.00;;;295.33;;
11039;SDS011;5573;49.592;8.662;2023-03-20T10:40:12;295.98;;;279.20;;
11039;SDS011;5573;49.592;8.662;2023-03-20T10:42:51;291.85;;;275.45;;
11039;SDS011;5573;49.592;8.662;2023-03-20T10:45:26;315.60;;;298.05;;
11039;SDS011;5573;49.592;8.662;2023-03-20T10:47:59;307.70;;;289.42;;
11039;SDS011;5573;49.592;8.662;2023-03-20T10:50:32;302.50;;;285.58;;
11039;SDS011;5573;49.592;8.662;2023-03-20T10:53:04;305.42;;;288.38;;
11039;SDS011;5573;49.592;8.662;2023-03-20T10:55:35;331.02;;;312.50;;
11039;SDS011;5573;49.592;8.662;2023-03-20T10:58:10;308.48;;;291.15;;
11039;SDS011;5573;49.592;8.662;2023-03-20T11:00:42;331.35;;;312.83;;
11039;SDS011;5573;49.592;8.662;2023-03-20T11:03:15;331.27;;;312.77;;
11039;SDS011;5573;49.592;8.662;2023-03-20T11:05:47;342.13;;;323.05;;
11039;SDS011;5573;49.592;8.662;2023-03-20T11:08:35;330.08;;;311.23;;
11039;SDS011;5573;49.592;8.662;2023-03-20T11:11:05;316.83;;;299.55;;
11039;SDS011;5573;49.592;8.662;2023-03-20T11:13:35;295.88;;;279.42;;
11039;SDS011;5573;49.592;8.662;2023-03-20T11:16:09;303.58;;;286.65;;
11039;SDS011;5573;49.592;8.662;2023-03-20T11:18:45;280.90;;;265.38;;
11039;SDS011;5573;49.592;8.662;2023-03-20T11:21:16;298.23;;;281.77;;
11039;SDS011;5573;49.592;8.662;2023-03-20T11:23:46;305.40;;;288.77;;
11039;SDS011;5573;49.592;8.662;2023-03-20T11:26:15;284.42;;;269.05;;
11039;SDS011;5573;49.592;8.662;2023-03-20T11:28:47;285.73;;;269.83;;
11039;SDS011;5573;49.592;8.662;2023-03-20T11:31:19;320.98;;;303.60;;
11039;SDS011;5573;49.592;8.662;2023-03-20T11:33:52;313.05;;;295.98;;
11039;SDS011;5573;49.592;8.662;2023-03-20T11:36:35;310.42;;;293.17;;
11039;SDS011;5573;49.592;8.662;2023-03-20T11:39:06;308.63;;;291.48;;
11039;SDS011;5573;49.592;8.662;2023-03-20T11:41:45;307.25;;;290.08;;
11039;SDS011;5573;49.592;8.662;2023-03-20T11:44:25;319.63;;;301.95;;
11039;SDS011;5573;49.592;8.662;2023-03-20T11:46:54;324.90;;;307.35;;
11039;SDS011;5573;49.592;8.662;2023-03-20T11:49:23;299.48;;;282.30;;
11039;SDS011;5573;49.592;8.662;2023-03-20T11:51:53;335.48;;;316.63;;
11039;SDS011;5573;49.592;8.662;2023-03-20T11:54:26;292.10;;;276.88;;
11039;SDS011;5573;49.592;8.662;2023-03-20T11:56:56;332.25;;;313.95;;
11039;SDS011;5573;49.592;8.662;2023-03-20T11:59:28;339.83;;;321.13;;
11039;SDS011;5573;49.592;8.662;2023-03-20T12:01:59;337.33;;;318.58;;
11039;SDS011;5573;49.592;8.662;2023-03-20T12:04:30;365.83;;;345.65;;
11039;SDS011;5573;49.592;8.662;2023-03-20T12:07:00;380.02;;;359.13;;
11039;SDS011;5573;49.592;8.662;2023-03-20T12:09:33;369.88;;;349.55;;
11039;SDS011;5573;49.592;8.662;2023-03-20T12:12:06;374.83;;;354.20;;
11039;SDS011;5573;49.592;8.662;2023-03-20T12:14:42;350.15;;;330.67;;
11039;SDS011;5573;49.592;8.662;2023-03-20T12:17:26;363.60;;;343.73;;
11039;SDS011;5573;49.592;8.662;2023-03-20T12:20:11;354.50;;;335.02;;
11039;SDS011;5573;49.592;8.662;2023-03-20T12:22:48;344.42;;;325.45;;
11039;SDS011;5573;49.592;8.662;2023-03-20T12:25:21;376.25;;;355.52;;
11039;SDS011;5573;49.592;8.662;2023-03-20T12:27:53;362.70;;;342.85;;
11039;SDS011;5573;49.592;8.662;2023-03-20T12:30:31;362.58;;;342.23;;
11039;SDS011;5573;49.592;8.662;2023-03-20T12:33:10;364.67;;;343.98;;
11039;SDS011;5573;49.592;8.662;2023-03-20T12:35:45;329.35;;;311.30;;
11039;SDS011;5573;49.592;8.662;2023-03-20T12:38:19;352.98;;;333.88;;
11039;SDS011;5573;49.592;8.662;2023-03-20T12:40:52;339.58;;;321.05;;
11039;SDS011;5573;49.592;8.662;2023-03-20T12:43:25;360.13;;;340.27;;
11039;SDS011;5573;49.592;8.662;2023-03-20T12:45:59;349.13;;;330.08;;
11039;SDS011;5573;49.592;8.662;2023-03-20T12:48:37;352.45;;;333.17;;
11039;SDS011;5573;49.592;8.662;2023-03-20T12:51:11;350.30;;;330.63;;
11039;SDS011;5573;49.592;8.662;2023-03-20T12:53:52;325.17;;;307.35;;
11039;SDS011;5573;49.592;8.662;2023-03-20T12:56:29;341.63;;;322.67;;
11039;SDS011;5573;49.592;8.662;2023-03-20T12:59:10;342.85;;;324.30;;
11039;SDS011;5573;49.592;8.662;2023-03-20T13:01:46;296.90;;;280.95;;
11039;SDS011;5573;49.592;8.662;2023-03-20T13:04:23;319.33;;;302.73;;
11039;SDS011;5573;49.592;8.662;2023-03-20T13:07:11;301.48;;;285.40;;
11039;SDS011;5573;49.592;8.662;2023-03-20T13:09:59;276.65;;;261.60;;
11039;SDS011;5573;49.592;8.662;2023-03-20T13:12:36;280.45;;;265.38;;
11039;SDS011;5573;49.592;8.662;2023-03-20T13:15:15;286.92;;;271.52;;
11039;SDS011;5573;49.592;8.662;2023-03-20T13:17:51;254.02;;;240.38;;
11039;SDS011;5573;49.592;8.662;2023-03-20T13:20:25;262.58;;;248.52;;
11039;SDS011;5573;49.592;8.662;2023-03-20T13:23:06;266.02;;;251.27;;
11039;SDS011;5573;49.592;8.662;2023-03-20T13:25:48;232.18;;;219.60;;
11039;SDS011;5573;49.592;8.662;2023-03-20T13:28:29;241.30;;;228.23;;
11039;SDS011;5573;49.592;8.662;2023-03-20T13:31:05;252.52;;;238.98;;
11039;SDS011;5573;49.592;8.662;2023-03-20T13:33:49;238.35;;;225.68;;
11039;SDS011;5573;49.592;8.662;2023-03-20T13:36:23;251.18;;;237.57;;
11039;SDS011;5573;49.592;8.662;2023-03-20T13:39:05;230.57;;;218.13;;
11039;SDS011;5573;49.592;8.662;2023-03-20T13:41:39;247.98;;;234.75;;
11039;SDS011;5573;49.592;8.662;2023-03-20T13:44:07;232.73;;;220.07;;
11039;SDS011;5573;49.592;8.662;2023-03-20T13:46:38;223.32;;;211.13;;
11039;SDS011;5573;49.592;8.662;2023-03-20T13:49:13;227.90;;;215.45;;
11039;SDS011;5573;49.592;8.662;2023-03-20T13:51:47;231.15;;;218.75;;
11039;SDS011;5573;49.592;8.662;2023-03-20T13:54:25;240.38;;;227.25;;
11039;SDS011;5573;49.592;8.662;2023-03-20T13:57:08;220.65;;;208.50;;
11039;SDS011;5573;49.592;8.662;2023-03-20T13:59:45;228.63;;;216.43;;
11039;SDS011;5573;49.592;8.662;2023-03-20T14:02:26;233.55;;;221.13;;
11039;SDS011;5573;49.592;8.662;2023-03-20T14:05:04;235.73;;;223.25;;
11039;SDS011;5573;49.592;8.662;2023-03-20T14:07:38;197.82;;;187.15;;
11039;SDS011;5573;49.592;8.662;2023-03-20T14:13:12;206.85;;;195.88;;
11039;SDS011;5573;49.592;8.662;2023-03-20T14:15:44;195.93;;;185.50;;
11039;SDS011;5573;49.592;8.662;2023-03-20T14:18:20;194.88;;;184.43;;
11039;SDS011;5573;49.592;8.662;2023-03-20T14:20:52;201.15;;;190.60;;
11039;SDS011;5573;49.592;8.662;2023-03-20T14:23:31;208.73;;;197.68;;
11039;SDS011;5573;49.592;8.662;2023-03-20T14:28:51;188.15;;;178.43;;
11039;SDS011;5573;49.592;8.662;2023-03-20T14:31:22;184.07;;;174.48;;
11039;SDS011;5573;49.592;8.662;2023-03-20T14:33:53;172.57;;;163.65;;
11039;SDS011;5573;49.592;8.662;2023-03-20T14:36:40;179.38;;;169.93;;
11039;SDS011;5573;49.592;8.662;2023-03-20T14:39:13;172.45;;;163.48;;
11039;SDS011;5573;49.592;8.662;2023-03-20T14:41:56;175.00;;;165.82;;
11039;SDS011;5573;49.592;8.662;2023-03-20T14:44:35;157.65;;;149.25;;
11039;SDS011;5573;49.592;8.662;2023-03-20T14:47:16;143.50;;;135.95;;
11039;SDS011;5573;49.592;8.662;2023-03-20T14:49:50;147.35;;;139.63;;
11039;SDS011;5573;49.592;8.662;2023-03-20T14:52:28;146.23;;;138.45;;
11039;SDS011;5573;49.592;8.662;2023-03-20T14:55:26;152.25;;;144.07;;
11039;SDS011;5573;49.592;8.662;2023-03-20T14:58:02;137.27;;;129.95;;
11039;SDS011;5573;49.592;8.662;2023-03-20T15:00:35;145.93;;;138.15;;